createdAt,value
2022-09-28T00:02:09.598Z,9.36
2022-09-28T00:04:53.236Z,9.47
2022-09-28T00:07:36.636Z,9.32
2022-09-28T00:10:23.821Z,9.41
2022-09-28T00:13:08.175Z,9.52
2022-09-28T00:16:08.332Z,9.50
2022-09-28T00:18:52.314Z,9.45
2022-09-28T00:21:39.607Z,9.34
2022-09-28T00:24:27.279Z,9.51
2022-09-28T00:27:11.187Z,9.29
2022-09-28T00:29:55.171Z,9.35
2022-09-28T00:32:38.671Z,9.42
2022-09-28T00:35:22.161Z,9.50
2022-09-28T00:38:09.332Z,9.62
2022-09-28T00:40:52.897Z,9.49
2022-09-28T00:43:36.404Z,9.68
2022-09-28T00:46:36.540Z,9.60
2022-09-28T00:49:33.325Z,9.80
2022-09-28T00:52:38.737Z,9.70
2022-09-28T00:55:44.487Z,9.91
2022-09-28T00:58:33.529Z,9.73
2022-09-28T01:01:17.419Z,9.84
2022-09-28T01:04:02.810Z,10.04
2022-09-28T01:06:47.495Z,9.97
2022-09-28T01:09:33.035Z,9.82
2022-09-28T01:12:16.495Z,9.83
2022-09-28T01:15:02.279Z,9.86
2022-09-28T01:18:19.666Z,10.07
2022-09-28T01:21:27.160Z,9.88
2022-09-28T01:24:42.529Z,9.94
2022-09-28T01:27:58.792Z,9.95
2022-09-28T01:31:00.850Z,9.97
2022-09-28T01:34:28.167Z,10.16
2022-09-28T01:37:18.594Z,10.35
2022-09-28T01:40:05.224Z,10.46
2022-09-28T01:43:08.005Z,10.13
2022-09-28T01:46:00.943Z,9.94
2022-09-28T01:48:50.713Z,10.15
2022-09-28T01:51:52.676Z,10.26
2022-09-28T01:54:53.646Z,10.12
2022-09-28T01:57:54.040Z,10.08
2022-09-28T02:00:45.125Z,9.97
2022-09-28T02:03:48.932Z,10.01
2022-09-28T02:06:42.043Z,10.17
2022-09-28T02:09:48.765Z,10.20
2022-09-28T02:12:54.603Z,9.85
2022-09-28T02:15:54.136Z,9.91
2022-09-28T02:18:37.643Z,9.74
2022-09-28T02:22:01.068Z,9.70
2022-09-28T02:24:54.648Z,9.70
2022-09-28T02:27:54.083Z,9.70
2022-09-28T02:30:41.472Z,9.74
2022-09-28T02:33:38.389Z,9.70
2022-09-28T02:36:26.720Z,9.61
2022-09-28T02:39:17.056Z,9.70
2022-09-28T02:42:27.599Z,9.61
2022-09-28T02:45:32.477Z,9.84
2022-09-28T02:49:21.519Z,9.86
2022-09-28T02:52:39.417Z,9.89
2022-09-28T02:55:31.789Z,9.99
2022-09-28T02:58:25.502Z,10.13
2022-09-28T03:01:23.958Z,10.10
2022-09-28T03:04:37.693Z,9.86
2022-09-28T03:07:36.158Z,9.74
2022-09-28T03:10:34.887Z,9.80
2022-09-28T03:13:18.663Z,9.89
2022-09-28T03:16:18.301Z,9.82
2022-09-28T03:19:04.266Z,9.70
2022-09-28T03:21:47.742Z,9.84
2022-09-28T03:24:31.642Z,9.56
2022-09-28T03:27:15.042Z,9.41
2022-09-28T03:29:58.666Z,9.70
2022-09-28T03:32:45.556Z,9.68
2022-09-28T03:35:29.273Z,9.90
2022-09-28T03:38:12.696Z,10.11
2022-09-28T03:41:01.081Z,10.14
2022-09-28T03:43:51.011Z,10.04
2022-09-28T03:46:34.464Z,10.06
2022-09-28T03:49:22.563Z,10.25
2022-09-28T03:52:06.388Z,10.24
2022-09-28T03:54:49.804Z,9.82
2022-09-28T03:57:33.305Z,9.92
2022-09-28T04:00:16.775Z,9.95
2022-09-28T04:03:00.157Z,9.92
2022-09-28T04:05:52.295Z,9.81
2022-09-28T04:08:35.749Z,9.81
2022-09-28T04:11:19.883Z,9.78
2022-09-28T04:14:04.040Z,9.78
2022-09-28T04:16:48.246Z,9.64
2022-09-28T04:19:33.091Z,9.72
2022-09-28T04:22:29.620Z,9.88
2022-09-28T04:25:13.191Z,9.69
2022-09-28T04:28:15.077Z,9.85
2022-09-28T04:30:58.513Z,9.98
2022-09-28T04:33:41.995Z,9.71
2022-09-28T04:36:25.491Z,9.69
2022-09-28T04:39:08.921Z,9.64
2022-09-28T04:41:52.625Z,9.78
2022-09-28T04:44:36.102Z,9.81
2022-09-28T04:47:25.147Z,9.80
2022-09-28T04:50:32.021Z,9.43
2022-09-28T04:53:36.609Z,9.43
2022-09-28T04:56:20.026Z,9.25
2022-09-28T04:59:03.468Z,9.29
2022-09-28T05:01:47.609Z,9.14
2022-09-28T05:04:49.660Z,9.35
2022-09-28T05:07:59.274Z,9.28
2022-09-28T05:10:43.173Z,9.23
2022-09-28T05:13:28.210Z,9.60
2022-09-28T05:16:14.169Z,9.34
2022-09-28T05:19:17.698Z,9.48
2022-09-28T05:22:06.041Z,9.36
2022-09-28T05:24:55.087Z,9.20
2022-09-28T05:27:40.350Z,9.37
2022-09-28T05:30:38.628Z,9.33
2022-09-28T05:33:44.801Z,9.20
2022-09-28T05:36:32.557Z,9.22
2022-09-28T05:39:16.071Z,9.05
2022-09-28T05:41:59.522Z,9.12
2022-09-28T05:44:43.227Z,9.26
2022-09-28T05:47:27.545Z,9.33
2022-09-28T05:50:12.046Z,9.62
2022-09-28T05:53:08.848Z,9.42
2022-09-28T05:55:57.130Z,9.57
2022-09-28T05:58:40.626Z,9.64
2022-09-28T06:01:25.322Z,9.40
2022-09-28T06:04:10.051Z,9.43
2022-09-28T06:06:53.659Z,9.29
2022-09-28T06:09:37.877Z,9.22
2022-09-28T06:12:36.896Z,9.49
2022-09-28T06:15:28.763Z,9.50
2022-09-28T06:18:15.024Z,9.42
2022-09-28T06:21:17.363Z,9.30
2022-09-28T06:24:05.104Z,9.35
2022-09-28T06:26:48.724Z,9.30
2022-09-28T06:29:32.867Z,9.45
2022-09-28T06:32:16.325Z,9.40
2022-09-28T06:35:02.966Z,9.69
2022-09-28T06:37:46.665Z,9.42
2022-09-28T06:40:30.729Z,9.36
2022-09-28T06:43:15.458Z,9.26
2022-09-28T06:46:25.534Z,9.48
2022-09-28T06:49:30.278Z,9.45
2022-09-28T06:52:32.319Z,9.61
2022-09-28T06:55:30.311Z,9.73
2022-09-28T06:58:19.818Z,9.59
2022-09-28T07:01:04.415Z,9.74
2022-09-28T07:03:57.967Z,9.85
2022-09-28T07:07:01.759Z,9.85
2022-09-28T07:10:13.436Z,9.88
2022-09-28T07:13:42.131Z,9.89
2022-09-28T07:16:27.662Z,9.84
2022-09-28T07:19:14.617Z,9.98
2022-09-28T07:22:04.814Z,9.80
2022-09-28T07:24:49.671Z,10.02
2022-09-28T07:27:57.388Z,10.01
2022-09-28T07:31:06.635Z,9.92
2022-09-28T07:34:24.116Z,9.98
2022-09-28T07:37:18.922Z,10.06
2022-09-28T07:40:24.339Z,10.20
2022-09-28T07:43:07.888Z,10.28
2022-09-28T07:45:54.925Z,10.25
2022-09-28T07:48:43.324Z,10.36
2022-09-28T07:51:47.591Z,10.44
2022-09-28T07:54:39.818Z,10.61
2022-09-28T07:57:41.890Z,10.55
2022-09-28T08:00:39.216Z,10.60
2022-09-28T08:03:22.641Z,10.78
2022-09-28T08:06:09.904Z,10.85
2022-09-28T08:08:56.390Z,10.86
2022-09-28T08:11:46.919Z,11.10
2022-09-28T08:14:52.312Z,11.36
2022-09-28T08:17:50.226Z,11.51
2022-09-28T08:20:55.196Z,11.69
2022-09-28T08:23:38.804Z,11.83
2022-09-28T08:26:23.051Z,12.19
2022-09-28T08:29:06.684Z,11.80
2022-09-28T08:32:02.698Z,12.12
2022-09-28T08:35:08.743Z,11.67
2022-09-28T08:38:03.952Z,12.47
2022-09-28T08:41:46.541Z,12.29
2022-09-28T08:45:05.247Z,12.82
2022-09-28T08:48:51.747Z,13.02
2022-09-28T08:52:26.603Z,13.06
2022-09-28T08:55:40.347Z,13.12
2022-09-28T08:58:30.483Z,12.85
2022-09-28T09:01:19.567Z,12.67
2022-09-28T09:04:06.752Z,12.46
2022-09-28T09:07:48.652Z,12.48
2022-09-28T09:11:01.658Z,12.36
2022-09-28T09:14:14.058Z,12.79
2022-09-28T09:17:15.832Z,12.95
2022-09-28T09:20:33.584Z,13.06
2022-09-28T09:24:16.390Z,13.05
2022-09-28T09:27:54.328Z,12.95
2022-09-28T09:31:22.714Z,13.18
2022-09-28T09:34:52.857Z,13.51
2022-09-28T09:38:32.796Z,13.68
2022-09-28T09:41:47.818Z,13.76
2022-09-28T09:44:49.683Z,14.34
2022-09-28T09:48:09.574Z,14.21
2022-09-28T09:51:02.986Z,14.33
2022-09-28T09:54:00.072Z,14.58
2022-09-28T09:57:13.070Z,14.66
2022-09-28T10:00:17.596Z,14.32
2022-09-28T10:03:32.615Z,14.18
2022-09-28T10:06:36.599Z,14.31
2022-09-28T10:09:27.993Z,14.35
2022-09-28T10:12:23.545Z,13.81
2022-09-28T10:15:09.317Z,14.43
2022-09-28T10:18:11.809Z,14.13
2022-09-28T10:21:16.790Z,14.27
2022-09-28T10:24:49.177Z,14.21
2022-09-28T10:27:40.669Z,14.38
2022-09-28T10:30:25.781Z,14.33
2022-09-28T10:33:32.143Z,14.47
2022-09-28T10:36:15.939Z,14.41
2022-09-28T10:39:00.416Z,14.07
2022-09-28T10:41:52.422Z,13.73
2022-09-28T10:45:00.326Z,13.56
2022-09-28T10:47:55.864Z,13.73
2022-09-28T10:50:40.857Z,13.72
2022-09-28T10:53:31.213Z,13.69
2022-09-28T10:56:29.971Z,13.61
2022-09-28T10:59:31.204Z,13.45
2022-09-28T11:02:40.111Z,12.98
2022-09-28T11:05:30.086Z,12.61
2022-09-28T11:08:30.426Z,12.79
2022-09-28T11:11:21.465Z,13.31
2022-09-28T11:14:41.861Z,13.36
2022-09-28T11:17:40.638Z,12.89
2022-09-28T11:20:27.812Z,12.85
2022-09-28T11:23:30.145Z,12.78
2022-09-28T11:26:19.222Z,12.46
2022-09-28T11:29:04.164Z,12.90
2022-09-28T11:32:03.669Z,12.60
2022-09-28T11:34:59.623Z,12.89
2022-09-28T11:38:17.184Z,12.73
2022-09-28T11:41:44.086Z,12.67
2022-09-28T11:44:46.520Z,12.82
2022-09-28T11:47:49.924Z,12.68
2022-09-28T11:50:52.291Z,12.76
2022-09-28T11:53:52.707Z,12.28
2022-09-28T11:56:42.506Z,12.97
2022-09-28T11:59:42.141Z,12.77
2022-09-28T12:03:00.737Z,12.77
2022-09-28T12:05:57.284Z,13.20
2022-09-28T12:08:53.493Z,12.94
2022-09-28T12:12:24.703Z,12.09
2022-09-28T12:15:28.395Z,12.52
2022-09-28T12:18:47.244Z,12.10
2022-09-28T12:21:33.515Z,12.35
2022-09-28T12:24:38.750Z,12.28
2022-09-28T12:27:35.070Z,12.25
2022-09-28T12:30:22.577Z,11.79
2022-09-28T12:33:13.414Z,11.92
2022-09-28T12:36:30.369Z,12.16
2022-09-28T12:39:57.670Z,12.32
2022-09-28T12:43:09.653Z,12.20
2022-09-28T12:46:13.739Z,11.79
2022-09-28T12:50:13.725Z,11.94
2022-09-28T12:53:02.341Z,12.06
2022-09-28T12:55:56.719Z,12.07
2022-09-28T12:59:08.071Z,11.99
2022-09-28T13:02:41.778Z,12.20
2022-09-28T13:05:52.469Z,12.45
2022-09-28T13:09:15.003Z,12.35
2022-09-28T13:12:30.222Z,12.50
2022-09-28T13:15:39.897Z,12.27
2022-09-28T13:19:02.332Z,12.18
2022-09-28T13:22:10.362Z,11.80
2022-09-28T13:25:00.156Z,11.98
2022-09-28T13:27:53.438Z,12.20
2022-09-28T13:30:40.331Z,12.41
2022-09-28T13:33:35.938Z,12.02
2022-09-28T13:36:25.103Z,11.32
2022-09-28T13:40:06.020Z,12.02
2022-09-28T13:43:19.421Z,11.75
2022-09-28T13:46:27.316Z,11.20
2022-09-28T13:49:48.121Z,11.00
2022-09-28T13:52:47.522Z,11.18
2022-09-28T13:55:43.119Z,11.84
2022-09-28T13:58:38.410Z,12.07
2022-09-28T14:01:32.633Z,11.57
2022-09-28T14:04:47.121Z,11.86
2022-09-28T14:07:36.400Z,11.31
2022-09-28T14:10:49.952Z,11.14
2022-09-28T14:13:42.805Z,12.16
2022-09-28T14:16:32.765Z,11.71
2022-09-28T14:19:31.397Z,11.91
2022-09-28T14:23:09.109Z,12.67
2022-09-28T14:26:53.273Z,13.06
2022-09-28T14:29:39.415Z,13.07
2022-09-28T14:32:25.659Z,13.21
2022-09-28T14:35:18.945Z,13.20
2022-09-28T14:38:39.092Z,13.48
2022-09-28T14:41:38.028Z,12.47
2022-09-28T14:44:22.221Z,11.90
2022-09-28T14:47:33.665Z,12.56
2022-09-28T14:50:29.852Z,12.33
2022-09-28T14:53:25.118Z,12.89
2022-09-28T14:56:09.521Z,11.77
2022-09-28T14:58:58.145Z,12.45
2022-09-28T15:02:15.078Z,12.12
2022-09-28T15:05:19.765Z,12.15
2022-09-28T15:08:03.391Z,12.34
2022-09-28T15:10:51.770Z,12.48
2022-09-28T15:13:35.210Z,12.40
2022-09-28T15:16:24.278Z,12.32
2022-09-28T15:19:21.125Z,12.58
2022-09-28T15:22:17.670Z,12.50
2022-09-28T15:25:04.026Z,12.63
2022-09-28T15:27:54.781Z,12.57
2022-09-28T15:30:38.353Z,13.13
2022-09-28T15:33:54.515Z,13.04
2022-09-28T15:36:42.525Z,13.08
2022-09-28T15:39:35.269Z,12.46
2022-09-28T15:42:19.970Z,12.56
2022-09-28T15:45:07.898Z,12.42
2022-09-28T15:48:16.660Z,12.73
2022-09-28T15:51:10.773Z,12.39
2022-09-28T15:54:22.548Z,12.66
2022-09-28T15:57:06.184Z,12.61
2022-09-28T15:59:57.041Z,12.43
2022-09-28T16:03:16.903Z,12.38
2022-09-28T16:06:09.877Z,12.43
2022-09-28T16:08:53.913Z,12.29
2022-09-28T16:11:40.913Z,12.09
2022-09-28T16:14:27.297Z,12.12
2022-09-28T16:17:32.804Z,12.13
2022-09-28T16:20:34.164Z,12.21
2022-09-28T16:23:19.592Z,11.89
2022-09-28T16:26:09.293Z,12.03
2022-09-28T16:28:53.424Z,11.94
2022-09-28T16:31:38.012Z,11.37
2022-09-28T16:34:26.958Z,11.83
2022-09-28T16:37:34.132Z,11.49
2022-09-28T16:40:17.639Z,11.80
2022-09-28T16:43:05.999Z,11.73
2022-09-28T16:45:50.287Z,11.69
2022-09-28T16:48:43.755Z,11.75
2022-09-28T16:51:28.629Z,11.78
2022-09-28T16:54:38.236Z,11.84
2022-09-28T16:57:23.361Z,11.63
2022-09-28T17:00:14.287Z,11.58
2022-09-28T17:02:58.590Z,11.87
2022-09-28T17:05:42.432Z,11.70
2022-09-28T17:08:26.803Z,11.76
2022-09-28T17:11:24.115Z,11.54
2022-09-28T17:14:08.921Z,11.77
2022-09-28T17:20:13.320Z,11.65
2022-09-28T17:22:57.009Z,11.11
2022-09-28T17:25:41.750Z,11.30
2022-09-28T17:28:30.411Z,11.68
2022-09-28T17:31:18.434Z,11.51
2022-09-28T17:34:02.267Z,11.74
2022-09-28T17:36:48.646Z,11.25
2022-09-28T17:39:33.420Z,11.11
2022-09-28T17:42:17.469Z,11.43
2022-09-28T17:45:02.122Z,11.16
2022-09-28T17:47:45.742Z,11.45
2022-09-28T17:50:34.179Z,11.36
2022-09-28T17:53:18.022Z,11.09
2022-09-28T17:56:01.733Z,11.17
2022-09-28T17:58:45.432Z,11.34
2022-09-28T18:01:34.523Z,11.33
2022-09-28T18:04:47.109Z,11.20
2022-09-28T18:07:22.910Z,11.52
2022-09-28T18:10:07.546Z,11.18
2022-09-28T18:12:51.502Z,11.29
2022-09-28T18:15:35.321Z,11.47
2022-09-28T18:18:22.035Z,11.51
2022-09-28T18:21:09.984Z,11.31
2022-09-28T18:23:53.826Z,11.39
2022-09-28T18:26:37.616Z,11.15
2022-09-28T18:29:21.484Z,11.10
2022-09-28T18:32:05.332Z,11.27
2022-09-28T18:34:49.142Z,11.14
2022-09-28T18:37:40.172Z,11.23
2022-09-28T18:40:24.072Z,11.10
2022-09-28T18:43:08.172Z,11.24
2022-09-28T18:45:51.888Z,11.20
2022-09-28T18:48:39.759Z,11.23
2022-09-28T18:51:24.487Z,10.95
2022-09-28T18:54:08.325Z,11.15
2022-09-28T18:56:56.440Z,11.24
2022-09-28T18:59:40.034Z,11.10
2022-09-28T19:02:23.706Z,11.24
2022-09-28T19:05:07.659Z,10.81
2022-09-28T19:07:51.272Z,11.03
2022-09-28T19:10:34.819Z,10.97
2022-09-28T19:13:18.366Z,10.99
2022-09-28T19:16:08.926Z,11.02
2022-09-28T19:18:53.794Z,10.82
2022-09-28T19:21:37.459Z,10.98
2022-09-28T19:24:21.269Z,10.86
2022-09-28T19:27:04.863Z,10.82
2022-09-28T19:29:48.377Z,10.79
2022-09-28T19:32:32.039Z,10.76
2022-09-28T19:35:15.750Z,10.63
2022-09-28T19:37:59.192Z,10.55
2022-09-28T19:40:42.759Z,10.51
2022-09-28T19:43:27.779Z,10.47
2022-09-28T19:46:13.304Z,10.40
2022-09-28T19:49:01.752Z,10.35
2022-09-28T19:52:11.605Z,10.32
2022-09-28T19:55:00.261Z,10.29
2022-09-28T19:57:47.906Z,10.13
2022-09-28T20:00:31.359Z,10.05
2022-09-28T20:03:15.344Z,10.07
2022-09-28T20:06:01.751Z,10.16
2022-09-28T20:08:45.288Z,9.99
2022-09-28T20:11:30.025Z,9.85
2022-09-28T20:14:18.662Z,9.84
2022-09-28T20:17:02.208Z,9.80
2022-09-28T20:19:45.889Z,9.76
2022-09-28T20:22:31.006Z,9.71
2022-09-28T20:25:14.846Z,9.79
2022-09-28T20:27:58.979Z,9.69
2022-09-28T20:30:42.672Z,9.66
2022-09-28T20:33:28.864Z,9.72
2022-09-28T20:36:18.146Z,9.57
2022-09-28T20:39:02.749Z,9.62
2022-09-28T20:41:47.494Z,9.69
2022-09-28T20:44:31.344Z,9.53
2022-09-28T20:47:14.898Z,9.66
2022-09-28T20:49:58.522Z,9.42
2022-09-28T20:52:42.114Z,9.43
2022-09-28T20:55:25.811Z,9.08
2022-09-28T20:58:09.510Z,9.12
2022-09-28T21:00:53.317Z,9.27
2022-09-28T21:03:38.528Z,9.37
2022-09-28T21:06:28.652Z,9.57
2022-09-28T21:09:12.562Z,9.47
2022-09-28T21:11:56.398Z,9.50
2022-09-28T21:14:39.959Z,9.34
2022-09-28T21:17:23.524Z,9.34
2022-09-28T21:20:08.143Z,9.28
2022-09-28T21:22:51.664Z,9.04
2022-09-28T21:25:35.431Z,9.19
2022-09-28T21:28:18.890Z,9.09
2022-09-28T21:31:05.825Z,9.38
2022-09-28T21:33:50.084Z,9.20
2022-09-28T21:36:33.975Z,9.23
2022-09-28T21:39:18.645Z,9.14
2022-09-28T21:42:02.090Z,8.98
2022-09-28T21:44:45.636Z,8.77
2022-09-28T21:47:29.905Z,8.92
2022-09-28T21:50:14.290Z,8.95
2022-09-28T21:52:57.874Z,8.88
2022-09-28T21:55:42.755Z,8.91
2022-09-28T21:58:29.812Z,9.09
2022-09-28T22:01:19.850Z,9.22
2022-09-28T22:04:03.360Z,9.32
2022-09-28T22:06:47.093Z,9.35
2022-09-28T22:09:30.626Z,9.34
2022-09-28T22:12:14.357Z,9.53
2022-09-28T22:14:57.977Z,9.75
2022-09-28T22:17:41.825Z,9.58
2022-09-28T22:20:25.461Z,9.70
2022-09-28T22:23:09.126Z,9.76
2022-09-28T22:26:05.865Z,9.66
2022-09-28T22:29:01.571Z,9.36
2022-09-28T22:31:45.019Z,9.56
2022-09-28T22:34:31.763Z,9.50
2022-09-28T22:37:15.218Z,9.60
2022-09-28T22:40:00.845Z,9.32
2022-09-28T22:42:44.447Z,9.26
2022-09-28T22:45:28.107Z,9.40
2022-09-28T22:48:12.911Z,9.64
2022-09-28T22:50:56.307Z,9.44
2022-09-28T22:53:39.721Z,9.42
2022-09-28T22:56:24.105Z,9.48
2022-09-28T22:59:07.645Z,9.57
2022-09-28T23:01:51.149Z,9.13
2022-09-28T23:04:34.679Z,8.76
2022-09-28T23:07:18.279Z,9.03
2022-09-28T23:10:01.776Z,9.11
2022-09-28T23:12:45.387Z,9.18
2022-09-28T23:15:29.614Z,9.34
2022-09-28T23:18:12.998Z,9.26
2022-09-28T23:21:00.002Z,9.08
2022-09-28T23:23:46.240Z,9.28
2022-09-28T23:26:32.792Z,9.13
2022-09-28T23:29:16.263Z,9.02
2022-09-28T23:31:59.777Z,9.30
2022-09-28T23:34:43.399Z,9.23
2022-09-28T23:37:26.827Z,8.98
2022-09-28T23:40:10.608Z,9.03
2022-09-28T23:42:53.986Z,8.82
2022-09-28T23:45:37.563Z,8.91
2022-09-28T23:48:21.035Z,8.89
2022-09-28T23:51:04.729Z,8.97
2022-09-28T23:53:48.172Z,8.88
2022-09-28T23:56:31.612Z,8.84
2022-09-28T23:59:15.125Z,8.40
